sensor_id;sensor_type;location;lat;lon;timestamp;temperature;humidity
6538;DHT22;3302;52.508;13.454;2022-11-30T00:00:14;4.90;99.90
6538;DHT22;3302;52.508;13.454;2022-11-30T00:02:41;4.80;99.90
6538;DHT22;3302;52.508;13.454;2022-11-30T00:05:06;4.70;99.90
6538;DHT22;3302;52.508;13.454;2022-11-30T00:07:33;4.70;99.90
6538;DHT22;3302;52.508;13.454;2022-11-30T00:09:59;4.80;99.90
6538;DHT22;3302;52.508;13.454;2022-11-30T00:12:24;4.70;99.90
6538;DHT22;3302;52.508;13.454;2022-11-30T00:14:50;4.70;99.90
6538;DHT22;3302;52.508;13.454;2022-11-30T00:17:16;4.80;99.90
6538;DHT22;3302;52.508;13.454;2022-11-30T00:19:42;4.70;99.90
6538;DHT22;3302;52.508;13.454;2022-11-30T00:22:08;4.80;99.90
6538;DHT22;3302;52.508;13.454;2022-11-30T00:24:33;4.80;99.90
6538;DHT22;3302;52.508;13.454;2022-11-30T00:26:59;4.70;99.90
6538;DHT22;3302;52.508;13.454;2022-11-30T00:29:25;4.60;99.90
6538;DHT22;3302;52.508;13.454;2022-11-30T00:31:51;4.60;99.90
6538;DHT22;3302;52.508;13.454;2022-11-30T00:34:16;4.70;99.90
6538;DHT22;3302;52.508;13.454;2022-11-30T00:36:42;4.70;99.90
6538;DHT22;3302;52.508;13.454;2022-11-30T00:39:08;4.70;99.90
6538;DHT22;3302;52.508;13.454;2022-11-30T00:41:34;4.80;99.90
6538;DHT22;3302;52.508;13.454;2022-11-30T00:43:59;4.80;99.90
6538;DHT22;3302;52.508;13.454;2022-11-30T00:46:25;4.80;99.90
6538;DHT22;3302;52.508;13.454;2022-11-30T00:48:51;4.80;99.90
6538;DHT22;3302;52.508;13.454;2022-11-30T00:51:17;4.70;99.90
6538;DHT22;3302;52.508;13.454;2022-11-30T00:53:43;4.70;99.90
6538;DHT22;3302;52.508;13.454;2022-11-30T00:56:09;4.70;99.90
6538;DHT22;3302;52.508;13.454;2022-11-30T00:58:35;4.70;99.90
6538;DHT22;3302;52.508;13.454;2022-11-30T01:01:01;4.70;99.90
6538;DHT22;3302;52.508;13.454;2022-11-30T01:03:27;4.60;99.90
6538;DHT22;3302;52.508;13.454;2022-11-30T01:05:53;4.60;99.90
6538;DHT22;3302;52.508;13.454;2022-11-30T01:08:18;4.70;99.90
6538;DHT22;3302;52.508;13.454;2022-11-30T01:10:44;4.70;99.90
6538;DHT22;3302;52.508;13.454;2022-11-30T01:13:12;4.70;99.90
6538;DHT22;3302;52.508;13.454;2022-11-30T01:15:41;4.60;99.90
6538;DHT22;3302;52.508;13.454;2022-11-30T01:18:07;4.60;99.90
6538;DHT22;3302;52.508;13.454;2022-11-30T01:20:34;4.40;99.90
6538;DHT22;3302;52.508;13.454;2022-11-30T01:22:59;4.50;99.90
6538;DHT22;3302;52.508;13.454;2022-11-30T01:25:25;4.50;99.90
6538;DHT22;3302;52.508;13.454;2022-11-30T01:27:51;4.50;99.90
6538;DHT22;3302;52.508;13.454;2022-11-30T01:30:17;4.60;99.90
6538;DHT22;3302;52.508;13.454;2022-11-30T01:32:43;4.60;99.90
6538;DHT22;3302;52.508;13.454;2022-11-30T01:35:09;4.60;99.90
6538;DHT22;3302;52.508;13.454;2022-11-30T01:37:35;4.60;99.90
6538;DHT22;3302;52.508;13.454;2022-11-30T01:40:01;4.50;99.90
6538;DHT22;3302;52.508;13.454;2022-11-30T01:42:26;4.40;99.90
6538;DHT22;3302;52.508;13.454;2022-11-30T01:44:55;4.50;99.90
6538;DHT22;3302;52.508;13.454;2022-11-30T01:47:28;4.50;99.90
6538;DHT22;3302;52.508;13.454;2022-11-30T01:50:00;4.50;99.90
6538;DHT22;3302;52.508;13.454;2022-11-30T01:52:32;4.60;99.90
6538;DHT22;3302;52.508;13.454;2022-11-30T01:55:15;4.50;99.90
6538;DHT22;3302;52.508;13.454;2022-11-30T01:57:50;4.50;99.90
6538;DHT22;3302;52.508;13.454;2022-11-30T02:00:17;4.40;99.90
6538;DHT22;3302;52.508;13.454;2022-11-30T02:05:33;4.40;99.90
6538;DHT22;3302;52.508;13.454;2022-11-30T02:08:01;4.60;99.90
6538;DHT22;3302;52.508;13.454;2022-11-30T02:10:29;4.50;99.90
6538;DHT22;3302;52.508;13.454;2022-11-30T02:18:33;4.60;99.90
6538;DHT22;3302;52.508;13.454;2022-11-30T02:21:11;4.50;99.90
6538;DHT22;3302;52.508;13.454;2022-11-30T02:23:59;4.50;99.90
6538;DHT22;3302;52.508;13.454;2022-11-30T02:26:47;4.60;99.90
6538;DHT22;3302;52.508;13.454;2022-11-30T02:29:24;4.60;99.90
6538;DHT22;3302;52.508;13.454;2022-11-30T02:32:21;4.60;99.90
6538;DHT22;3302;52.508;13.454;2022-11-30T02:34:51;4.50;99.90
6538;DHT22;3302;52.508;13.454;2022-11-30T02:37:18;4.50;99.90
6538;DHT22;3302;52.508;13.454;2022-11-30T02:39:46;4.40;99.90
6538;DHT22;3302;52.508;13.454;2022-11-30T02:42:12;4.40;99.90
6538;DHT22;3302;52.508;13.454;2022-11-30T02:44:44;4.40;99.90
6538;DHT22;3302;52.508;13.454;2022-11-30T02:52:14;4.50;99.90
6538;DHT22;3302;52.508;13.454;2022-11-30T02:54:41;4.50;99.90
6538;DHT22;3302;52.508;13.454;2022-11-30T02:57:08;4.50;99.90
6538;DHT22;3302;52.508;13.454;2022-11-30T02:59:33;4.50;99.90
6538;DHT22;3302;52.508;13.454;2022-11-30T03:01:59;4.50;99.90
6538;DHT22;3302;52.508;13.454;2022-11-30T03:04:25;4.50;99.90
6538;DHT22;3302;52.508;13.454;2022-11-30T03:06:51;4.50;99.90
6538;DHT22;3302;52.508;13.454;2022-11-30T03:09:17;4.50;99.90
6538;DHT22;3302;52.508;13.454;2022-11-30T03:11:42;4.50;99.90
6538;DHT22;3302;52.508;13.454;2022-11-30T03:14:08;4.50;99.90
6538;DHT22;3302;52.508;13.454;2022-11-30T03:16:36;4.60;99.90
6538;DHT22;3302;52.508;13.454;2022-11-30T03:19:02;4.50;99.90
6538;DHT22;3302;52.508;13.454;2022-11-30T03:21:28;4.50;99.90
6538;DHT22;3302;52.508;13.454;2022-11-30T03:23:54;4.50;99.90
6538;DHT22;3302;52.508;13.454;2022-11-30T03:26:20;4.40;99.90
6538;DHT22;3302;52.508;13.454;2022-11-30T03:28:46;4.40;99.90
6538;DHT22;3302;52.508;13.454;2022-11-30T03:31:13;4.40;99.90
6538;DHT22;3302;52.508;13.454;2022-11-30T03:33:40;4.40;99.90
6538;DHT22;3302;52.508;13.454;2022-11-30T03:36:08;4.40;99.90
6538;DHT22;3302;52.508;13.454;2022-11-30T03:38:35;4.40;99.90
6538;DHT22;3302;52.508;13.454;2022-11-30T03:41:03;4.40;99.90
6538;DHT22;3302;52.508;13.454;2022-11-30T03:43:30;4.40;99.90
6538;DHT22;3302;52.508;13.454;2022-11-30T03:45:57;4.50;99.90
6538;DHT22;3302;52.508;13.454;2022-11-30T03:48:24;4.40;99.90
6538;DHT22;3302;52.508;13.454;2022-11-30T03:50:50;4.40;99.90
6538;DHT22;3302;52.508;13.454;2022-11-30T03:53:20;4.30;99.90
6538;DHT22;3302;52.508;13.454;2022-11-30T03:55:54;4.30;99.90
6538;DHT22;3302;52.508;13.454;2022-11-30T03:58:22;4.40;99.90
6538;DHT22;3302;52.508;13.454;2022-11-30T04:00:48;4.50;99.90
6538;DHT22;3302;52.508;13.454;2022-11-30T04:03:15;4.30;99.90
6538;DHT22;3302;52.508;13.454;2022-11-30T04:05:41;4.40;99.90
6538;DHT22;3302;52.508;13.454;2022-11-30T04:08:07;4.40;99.90
6538;DHT22;3302;52.508;13.454;2022-11-30T04:10:33;4.50;99.90
6538;DHT22;3302;52.508;13.454;2022-11-30T04:12:59;4.50;99.90
6538;DHT22;3302;52.508;13.454;2022-11-30T04:15:24;4.40;99.90
6538;DHT22;3302;52.508;13.454;2022-11-30T04:17:50;4.40;99.90
6538;DHT22;3302;52.508;13.454;2022-11-30T04:20:16;4.30;99.90
6538;DHT22;3302;52.508;13.454;2022-11-30T04:22:42;4.40;99.90
6538;DHT22;3302;52.508;13.454;2022-11-30T04:25:08;4.30;99.90
6538;DHT22;3302;52.508;13.454;2022-11-30T04:27:33;4.40;99.90
6538;DHT22;3302;52.508;13.454;2022-11-30T04:29:59;4.40;99.90
6538;DHT22;3302;52.508;13.454;2022-11-30T04:32:25;4.40;99.90
6538;DHT22;3302;52.508;13.454;2022-11-30T04:34:50;4.50;99.90
6538;DHT22;3302;52.508;13.454;2022-11-30T04:37:16;4.50;99.90
6538;DHT22;3302;52.508;13.454;2022-11-30T04:39:42;4.50;99.90
6538;DHT22;3302;52.508;13.454;2022-11-30T04:42:08;4.20;99.90
6538;DHT22;3302;52.508;13.454;2022-11-30T04:44:33;4.20;99.90
6538;DHT22;3302;52.508;13.454;2022-11-30T04:46:59;4.00;99.90
6538;DHT22;3302;52.508;13.454;2022-11-30T04:49:25;4.20;99.90
6538;DHT22;3302;52.508;13.454;2022-11-30T04:51:51;4.20;99.90
6538;DHT22;3302;52.508;13.454;2022-11-30T04:54:16;4.20;99.90
6538;DHT22;3302;52.508;13.454;2022-11-30T04:56:42;4.30;99.90
6538;DHT22;3302;52.508;13.454;2022-11-30T04:59:08;4.40;99.90
6538;DHT22;3302;52.508;13.454;2022-11-30T05:01:34;4.40;99.90
6538;DHT22;3302;52.508;13.454;2022-11-30T05:03:59;4.40;99.90
6538;DHT22;3302;52.508;13.454;2022-11-30T05:06:26;4.30;99.90
6538;DHT22;3302;52.508;13.454;2022-11-30T05:08:51;4.30;99.90
6538;DHT22;3302;52.508;13.454;2022-11-30T05:11:17;4.30;99.90
6538;DHT22;3302;52.508;13.454;2022-11-30T05:13:43;4.20;99.90
6538;DHT22;3302;52.508;13.454;2022-11-30T05:16:09;4.30;99.90
6538;DHT22;3302;52.508;13.454;2022-11-30T05:18:37;4.40;99.90
6538;DHT22;3302;52.508;13.454;2022-11-30T05:21:03;4.30;99.90
6538;DHT22;3302;52.508;13.454;2022-11-30T05:23:29;4.30;99.90
6538;DHT22;3302;52.508;13.454;2022-11-30T05:25:54;4.30;99.90
6538;DHT22;3302;52.508;13.454;2022-11-30T05:28:20;4.30;99.90
6538;DHT22;3302;52.508;13.454;2022-11-30T05:30:46;4.20;99.90
6538;DHT22;3302;52.508;13.454;2022-11-30T05:33:12;4.20;99.90
6538;DHT22;3302;52.508;13.454;2022-11-30T05:35:38;4.40;99.90
6538;DHT22;3302;52.508;13.454;2022-11-30T05:38:04;4.40;99.90
6538;DHT22;3302;52.508;13.454;2022-11-30T05:40:30;4.30;99.90
6538;DHT22;3302;52.508;13.454;2022-11-30T05:42:59;4.30;99.90
6538;DHT22;3302;52.508;13.454;2022-11-30T05:45:25;4.30;99.90
6538;DHT22;3302;52.508;13.454;2022-11-30T05:47:51;4.30;99.90
6538;DHT22;3302;52.508;13.454;2022-11-30T05:50:17;4.30;99.90
6538;DHT22;3302;52.508;13.454;2022-11-30T05:52:43;4.30;99.90
6538;DHT22;3302;52.508;13.454;2022-11-30T05:55:09;4.30;99.90
6538;DHT22;3302;52.508;13.454;2022-11-30T05:57:36;4.30;99.90
6538;DHT22;3302;52.508;13.454;2022-11-30T06:00:07;4.30;99.90
6538;DHT22;3302;52.508;13.454;2022-11-30T06:02:33;4.10;99.90
6538;DHT22;3302;52.508;13.454;2022-11-30T06:05:00;4.20;99.90
6538;DHT22;3302;52.508;13.454;2022-11-30T06:07:25;4.10;99.90
6538;DHT22;3302;52.508;13.454;2022-11-30T06:09:51;4.00;99.90
6538;DHT22;3302;52.508;13.454;2022-11-30T06:12:17;3.90;99.90
6538;DHT22;3302;52.508;13.454;2022-11-30T06:14:43;3.80;99.90
6538;DHT22;3302;52.508;13.454;2022-11-30T06:17:08;3.90;99.90
6538;DHT22;3302;52.508;13.454;2022-11-30T06:19:34;3.90;99.90
6538;DHT22;3302;52.508;13.454;2022-11-30T06:22:00;3.90;99.90
6538;DHT22;3302;52.508;13.454;2022-11-30T06:24:26;3.90;99.90
6538;DHT22;3302;52.508;13.454;2022-11-30T06:26:51;4.00;99.90
6538;DHT22;3302;52.508;13.454;2022-11-30T06:29:17;4.10;99.90
6538;DHT22;3302;52.508;13.454;2022-11-30T06:31:43;4.00;99.90
6538;DHT22;3302;52.508;13.454;2022-11-30T06:34:09;4.20;99.90
6538;DHT22;3302;52.508;13.454;2022-11-30T06:36:34;4.30;99.90
6538;DHT22;3302;52.508;13.454;2022-11-30T06:39:00;4.30;99.90
6538;DHT22;3302;52.508;13.454;2022-11-30T06:41:26;4.40;99.90
6538;DHT22;3302;52.508;13.454;2022-11-30T06:43:52;4.40;99.90
6538;DHT22;3302;52.508;13.454;2022-11-30T06:46:18;4.30;99.90
6538;DHT22;3302;52.508;13.454;2022-11-30T06:48:47;4.30;99.90
6538;DHT22;3302;52.508;13.454;2022-11-30T06:51:14;4.20;99.90
6538;DHT22;3302;52.508;13.454;2022-11-30T06:53:41;4.30;99.90
6538;DHT22;3302;52.508;13.454;2022-11-30T06:56:09;4.40;99.90
6538;DHT22;3302;52.508;13.454;2022-11-30T06:58:35;4.40;99.90
6538;DHT22;3302;52.508;13.454;2022-11-30T07:01:10;4.40;99.90
6538;DHT22;3302;52.508;13.454;2022-11-30T07:03:37;4.30;99.90
6538;DHT22;3302;52.508;13.454;2022-11-30T07:06:08;4.30;99.90
6538;DHT22;3302;52.508;13.454;2022-11-30T07:08:35;4.20;99.90
6538;DHT22;3302;52.508;13.454;2022-11-30T07:11:01;4.30;99.90
6538;DHT22;3302;52.508;13.454;2022-11-30T07:13:27;4.30;99.90
6538;DHT22;3302;52.508;13.454;2022-11-30T07:15:54;4.30;99.90
6538;DHT22;3302;52.508;13.454;2022-11-30T07:18:20;4.30;99.90
6538;DHT22;3302;52.508;13.454;2022-11-30T07:20:46;4.40;99.90
6538;DHT22;3302;52.508;13.454;2022-11-30T07:23:12;4.30;99.90
6538;DHT22;3302;52.508;13.454;2022-11-30T07:25:59;4.20;99.90
6538;DHT22;3302;52.508;13.454;2022-11-30T07:28:39;4.20;99.90
6538;DHT22;3302;52.508;13.454;2022-11-30T07:33:49;4.30;99.90
6538;DHT22;3302;52.508;13.454;2022-11-30T07:36:17;4.40;99.90
6538;DHT22;3302;52.508;13.454;2022-11-30T07:38:44;4.40;99.90
6538;DHT22;3302;52.508;13.454;2022-11-30T07:41:10;4.50;99.90
6538;DHT22;3302;52.508;13.454;2022-11-30T07:43:36;4.50;99.90
6538;DHT22;3302;52.508;13.454;2022-11-30T07:46:02;4.40;99.90
6538;DHT22;3302;52.508;13.454;2022-11-30T07:48:29;4.30;99.90
6538;DHT22;3302;52.508;13.454;2022-11-30T07:51:04;4.40;99.90
6538;DHT22;3302;52.508;13.454;2022-11-30T07:53:30;4.40;99.90
6538;DHT22;3302;52.508;13.454;2022-11-30T07:56:08;4.50;99.90
6538;DHT22;3302;52.508;13.454;2022-11-30T07:58:34;4.40;99.90
6538;DHT22;3302;52.508;13.454;2022-11-30T08:01:02;4.50;99.90
6538;DHT22;3302;52.508;13.454;2022-11-30T08:03:28;4.50;99.90
6538;DHT22;3302;52.508;13.454;2022-11-30T08:05:59;4.40;99.90
6538;DHT22;3302;52.508;13.454;2022-11-30T08:08:29;4.40;99.90
6538;DHT22;3302;52.508;13.454;2022-11-30T08:10:58;4.40;99.90
6538;DHT22;3302;52.508;13.454;2022-11-30T08:13:24;4.50;99.90
6538;DHT22;3302;52.508;13.454;2022-11-30T08:15:50;4.50;99.90
6538;DHT22;3302;52.508;13.454;2022-11-30T08:18:16;4.50;99.90
6538;DHT22;3302;52.508;13.454;2022-11-30T08:20:42;4.50;99.90
6538;DHT22;3302;52.508;13.454;2022-11-30T08:23:08;4.60;99.90
6538;DHT22;3302;52.508;13.454;2022-11-30T08:25:34;4.60;99.90
6538;DHT22;3302;52.508;13.454;2022-11-30T08:28:00;4.60;99.90
6538;DHT22;3302;52.508;13.454;2022-11-30T08:30:25;4.60;99.90
6538;DHT22;3302;52.508;13.454;2022-11-30T08:32:51;4.70;99.90
6538;DHT22;3302;52.508;13.454;2022-11-30T08:35:17;4.50;99.90
6538;DHT22;3302;52.508;13.454;2022-11-30T08:37:43;4.20;99.90
6538;DHT22;3302;52.508;13.454;2022-11-30T08:40:09;4.20;99.90
6538;DHT22;3302;52.508;13.454;2022-11-30T08:42:36;4.10;99.90
6538;DHT22;3302;52.508;13.454;2022-11-30T08:45:02;4.10;99.90
6538;DHT22;3302;52.508;13.454;2022-11-30T08:47:28;4.10;99.90
6538;DHT22;3302;52.508;13.454;2022-11-30T08:49:56;4.40;99.90
6538;DHT22;3302;52.508;13.454;2022-11-30T08:52:22;4.20;99.90
6538;DHT22;3302;52.508;13.454;2022-11-30T08:54:48;4.30;99.90
6538;DHT22;3302;52.508;13.454;2022-11-30T08:57:16;4.40;99.90
6538;DHT22;3302;52.508;13.454;2022-11-30T08:59:42;4.50;99.90
6538;DHT22;3302;52.508;13.454;2022-11-30T09:02:13;4.50;99.90
6538;DHT22;3302;52.508;13.454;2022-11-30T09:04:41;4.50;99.90
6538;DHT22;3302;52.508;13.454;2022-11-30T09:07:07;4.50;99.90
6538;DHT22;3302;52.508;13.454;2022-11-30T09:09:34;4.60;99.90
6538;DHT22;3302;52.508;13.454;2022-11-30T09:12:01;4.70;99.90
6538;DHT22;3302;52.508;13.454;2022-11-30T09:14:27;4.60;99.90
6538;DHT22;3302;52.508;13.454;2022-11-30T09:16:53;4.60;99.90
6538;DHT22;3302;52.508;13.454;2022-11-30T09:19:19;4.70;99.90
6538;DHT22;3302;52.508;13.454;2022-11-30T09:21:45;4.70;99.90
6538;DHT22;3302;52.508;13.454;2022-11-30T09:24:11;4.70;99.90
6538;DHT22;3302;52.508;13.454;2022-11-30T09:26:37;4.70;99.90
6538;DHT22;3302;52.508;13.454;2022-11-30T09:29:03;4.70;99.90
6538;DHT22;3302;52.508;13.454;2022-11-30T09:31:29;4.70;99.90
6538;DHT22;3302;52.508;13.454;2022-11-30T09:33:56;4.70;99.90
6538;DHT22;3302;52.508;13.454;2022-11-30T09:36:23;4.70;99.90
6538;DHT22;3302;52.508;13.454;2022-11-30T09:38:52;4.60;99.90
6538;DHT22;3302;52.508;13.454;2022-11-30T09:46:57;4.80;99.90
6538;DHT22;3302;52.508;13.454;2022-11-30T09:49:45;4.80;99.90
6538;DHT22;3302;52.508;13.454;2022-11-30T09:52:19;4.90;99.90
6538;DHT22;3302;52.508;13.454;2022-11-30T09:54:46;5.00;99.90
6538;DHT22;3302;52.508;13.454;2022-11-30T09:57:29;5.00;99.90
6538;DHT22;3302;52.508;13.454;2022-11-30T10:00:00;4.90;99.90
6538;DHT22;3302;52.508;13.454;2022-11-30T10:02:37;5.00;99.90
6538;DHT22;3302;52.508;13.454;2022-11-30T10:05:14;4.90;99.90
6538;DHT22;3302;52.508;13.454;2022-11-30T10:08:02;4.90;99.90
6538;DHT22;3302;52.508;13.454;2022-11-30T10:14:00;5.10;99.90
6538;DHT22;3302;52.508;13.454;2022-11-30T10:19:32;5.10;99.90
6538;DHT22;3302;52.508;13.454;2022-11-30T10:22:23;5.00;99.90
6538;DHT22;3302;52.508;13.454;2022-11-30T10:25:02;5.00;99.90
6538;DHT22;3302;52.508;13.454;2022-11-30T10:30:18;5.20;99.90
6538;DHT22;3302;52.508;13.454;2022-11-30T10:32:53;5.30;99.90
6538;DHT22;3302;52.508;13.454;2022-11-30T10:35:25;5.20;99.90
6538;DHT22;3302;52.508;13.454;2022-11-30T10:37:55;5.40;99.90
6538;DHT22;3302;52.508;13.454;2022-11-30T10:40:33;5.20;99.90
6538;DHT22;3302;52.508;13.454;2022-11-30T10:45:50;5.10;99.90
6538;DHT22;3302;52.508;13.454;2022-11-30T10:48:30;5.00;99.90
6538;DHT22;3302;52.508;13.454;2022-11-30T10:50:58;5.00;99.90
6538;DHT22;3302;52.508;13.454;2022-11-30T10:53:25;5.10;99.90
6538;DHT22;3302;52.508;13.454;2022-11-30T10:56:09;5.30;99.90
6538;DHT22;3302;52.508;13.454;2022-11-30T11:01:43;5.50;99.90
6538;DHT22;3302;52.508;13.454;2022-11-30T11:06:50;5.50;99.90
6538;DHT22;3302;52.508;13.454;2022-11-30T11:12:14;5.60;99.90
6538;DHT22;3302;52.508;13.454;2022-11-30T11:14:40;5.70;99.90
6538;DHT22;3302;52.508;13.454;2022-11-30T11:19:47;5.50;99.90
6538;DHT22;3302;52.508;13.454;2022-11-30T11:22:22;5.60;99.90
6538;DHT22;3302;52.508;13.454;2022-11-30T11:24:52;5.70;99.90
6538;DHT22;3302;52.508;13.454;2022-11-30T11:27:30;5.70;99.90
6538;DHT22;3302;52.508;13.454;2022-11-30T11:30:26;5.80;99.90
6538;DHT22;3302;52.508;13.454;2022-11-30T11:33:23;5.70;99.90
6538;DHT22;3302;52.508;13.454;2022-11-30T11:35:53;5.80;99.90
6538;DHT22;3302;52.508;13.454;2022-11-30T11:38:22;5.80;99.90
6538;DHT22;3302;52.508;13.454;2022-11-30T11:41:04;5.70;99.90
6538;DHT22;3302;52.508;13.454;2022-11-30T11:43:34;5.80;99.90
6538;DHT22;3302;52.508;13.454;2022-11-30T11:46:12;5.80;99.90
6538;DHT22;3302;52.508;13.454;2022-11-30T11:48:42;5.90;99.90
6538;DHT22;3302;52.508;13.454;2022-11-30T11:51:10;5.80;99.90
6538;DHT22;3302;52.508;13.454;2022-11-30T11:53:49;5.70;99.90
6538;DHT22;3302;52.508;13.454;2022-11-30T12:04:31;5.60;99.90
6538;DHT22;3302;52.508;13.454;2022-11-30T12:07:03;5.60;99.90
6538;DHT22;3302;52.508;13.454;2022-11-30T12:09:39;5.70;99.90
6538;DHT22;3302;52.508;13.454;2022-11-30T12:12:12;5.70;99.90
6538;DHT22;3302;52.508;13.454;2022-11-30T12:14:38;5.70;99.90
6538;DHT22;3302;52.508;13.454;2022-11-30T12:17:30;5.60;99.90
6538;DHT22;3302;52.508;13.454;2022-11-30T12:26:05;5.90;99.90
6538;DHT22;3302;52.508;13.454;2022-11-30T12:31:24;5.80;99.90
6538;DHT22;3302;52.508;13.454;2022-11-30T12:34:15;5.80;99.90
6538;DHT22;3302;52.508;13.454;2022-11-30T12:37:16;5.70;99.90
6538;DHT22;3302;52.508;13.454;2022-11-30T12:58:29;5.50;99.90
6538;DHT22;3302;52.508;13.454;2022-11-30T13:01:29;5.60;99.90
6538;DHT22;3302;52.508;13.454;2022-11-30T13:04:09;5.70;99.90
6538;DHT22;3302;52.508;13.454;2022-11-30T13:06:45;5.60;99.90
6538;DHT22;3302;52.508;13.454;2022-11-30T13:09:22;5.60;99.90
6538;DHT22;3302;52.508;13.454;2022-11-30T13:12:00;5.70;99.90
6538;DHT22;3302;52.508;13.454;2022-11-30T13:14:29;5.50;99.90
6538;DHT22;3302;52.508;13.454;2022-11-30T13:17:06;5.40;99.90
6538;DHT22;3302;52.508;13.454;2022-11-30T13:19:47;5.20;99.90
6538;DHT22;3302;52.508;13.454;2022-11-30T13:25:32;5.10;99.90
6538;DHT22;3302;52.508;13.454;2022-11-30T13:28:15;4.70;99.90
6538;DHT22;3302;52.508;13.454;2022-11-30T13:36:02;4.80;99.90
6538;DHT22;3302;52.508;13.454;2022-11-30T13:38:29;4.60;99.90
6538;DHT22;3302;52.508;13.454;2022-11-30T13:41:06;4.50;99.90
6538;DHT22;3302;52.508;13.454;2022-11-30T13:43:42;4.50;99.90
6538;DHT22;3302;52.508;13.454;2022-11-30T13:48:41;4.30;99.90
6538;DHT22;3302;52.508;13.454;2022-11-30T13:51:09;4.40;99.90
6538;DHT22;3302;52.508;13.454;2022-11-30T13:53:38;4.40;99.90
6538;DHT22;3302;52.508;13.454;2022-11-30T14:01:50;4.10;99.90
6538;DHT22;3302;52.508;13.454;2022-11-30T14:06:48;4.20;99.90
6538;DHT22;3302;52.508;13.454;2022-11-30T14:09:16;4.10;99.90
6538;DHT22;3302;52.508;13.454;2022-11-30T14:11:43;4.10;99.90
6538;DHT22;3302;52.508;13.454;2022-11-30T14:14:44;3.90;99.90
6538;DHT22;3302;52.508;13.454;2022-11-30T14:17:18;3.80;99.90
6538;DHT22;3302;52.508;13.454;2022-11-30T14:19:50;3.40;99.90
6538;DHT22;3302;52.508;13.454;2022-11-30T14:22:17;3.20;99.90
6538;DHT22;3302;52.508;13.454;2022-11-30T14:24:45;3.00;99.90
6538;DHT22;3302;52.508;13.454;2022-11-30T14:27:19;3.10;99.90
6538;DHT22;3302;52.508;13.454;2022-11-30T14:29:48;3.20;99.90
6538;DHT22;3302;52.508;13.454;2022-11-30T14:32:24;3.30;99.90
6538;DHT22;3302;52.508;13.454;2022-11-30T14:35:00;3.00;99.90
6538;DHT22;3302;52.508;13.454;2022-11-30T14:37:31;3.00;99.90
6538;DHT22;3302;52.508;13.454;2022-11-30T14:40:03;3.30;99.90
6538;DHT22;3302;52.508;13.454;2022-11-30T14:42:31;3.30;99.90
6538;DHT22;3302;52.508;13.454;2022-11-30T14:44:58;3.10;99.90
6538;DHT22;3302;52.508;13.454;2022-11-30T14:47:33;3.20;99.90
6538;DHT22;3302;52.508;13.454;2022-11-30T14:50:02;3.40;99.90
6538;DHT22;3302;52.508;13.454;2022-11-30T14:55:32;3.30;99.90
6538;DHT22;3302;52.508;13.454;2022-11-30T15:00:46;2.90;99.90
6538;DHT22;3302;52.508;13.454;2022-11-30T15:03:33;2.70;99.90
6538;DHT22;3302;52.508;13.454;2022-11-30T15:06:02;2.80;99.90
6538;DHT22;3302;52.508;13.454;2022-11-30T15:08:37;2.90;99.90
6538;DHT22;3302;52.508;13.454;2022-11-30T15:11:09;2.70;99.90
6538;DHT22;3302;52.508;13.454;2022-11-30T15:13:42;2.80;99.90
6538;DHT22;3302;52.508;13.454;2022-11-30T15:18:42;2.60;99.90
6538;DHT22;3302;52.508;13.454;2022-11-30T15:21:14;2.60;99.90
6538;DHT22;3302;52.508;13.454;2022-11-30T15:23:42;2.50;99.90
6538;DHT22;3302;52.508;13.454;2022-11-30T15:26:21;2.70;99.90
6538;DHT22;3302;52.508;13.454;2022-11-30T15:31:57;2.70;99.90
6538;DHT22;3302;52.508;13.454;2022-11-30T15:36:53;2.50;99.90
6538;DHT22;3302;52.508;13.454;2022-11-30T15:39:21;2.50;99.90
6538;DHT22;3302;52.508;13.454;2022-11-30T15:41:52;2.40;99.90
6538;DHT22;3302;52.508;13.454;2022-11-30T15:44:39;2.50;99.90
6538;DHT22;3302;52.508;13.454;2022-11-30T15:47:23;2.50;99.90
6538;DHT22;3302;52.508;13.454;2022-11-30T15:49:52;2.40;99.90
6538;DHT22;3302;52.508;13.454;2022-11-30T15:52:19;2.40;99.90
6538;DHT22;3302;52.508;13.454;2022-11-30T15:54:57;2.40;99.90
6538;DHT22;3302;52.508;13.454;2022-11-30T15:57:25;2.30;99.90
6538;DHT22;3302;52.508;13.454;2022-11-30T16:00:04;2.30;99.90
6538;DHT22;3302;52.508;13.454;2022-11-30T16:02:34;2.50;99.90
6538;DHT22;3302;52.508;13.454;2022-11-30T16:07:30;2.40;99.90
6538;DHT22;3302;52.508;13.454;2022-11-30T16:12:29;2.60;99.90
6538;DHT22;3302;52.508;13.454;2022-11-30T16:14:56;2.60;99.90
6538;DHT22;3302;52.508;13.454;2022-11-30T16:17:22;2.60;99.90
6538;DHT22;3302;52.508;13.454;2022-11-30T16:19:48;2.50;99.90
6538;DHT22;3302;52.508;13.454;2022-11-30T16:22:14;2.40;99.90
6538;DHT22;3302;52.508;13.454;2022-11-30T16:24:40;2.50;99.90
6538;DHT22;3302;52.508;13.454;2022-11-30T16:27:17;2.50;99.90
6538;DHT22;3302;52.508;13.454;2022-11-30T16:29:44;2.40;99.90
6538;DHT22;3302;52.508;13.454;2022-11-30T16:32:11;2.60;99.90
6538;DHT22;3302;52.508;13.454;2022-11-30T16:34:38;2.60;99.90
6538;DHT22;3302;52.508;13.454;2022-11-30T16:37:04;2.40;99.90
6538;DHT22;3302;52.508;13.454;2022-11-30T16:39:30;2.50;99.90
6538;DHT22;3302;52.508;13.454;2022-11-30T16:41:56;2.40;99.90
6538;DHT22;3302;52.508;13.454;2022-11-30T16:44:22;2.40;99.90
6538;DHT22;3302;52.508;13.454;2022-11-30T16:46:48;2.40;99.90
6538;DHT22;3302;52.508;13.454;2022-11-30T16:49:16;2.50;99.90
6538;DHT22;3302;52.508;13.454;2022-11-30T16:51:42;2.40;99.90
6538;DHT22;3302;52.508;13.454;2022-11-30T16:54:11;2.60;99.90
6538;DHT22;3302;52.508;13.454;2022-11-30T16:56:37;2.40;99.90
6538;DHT22;3302;52.508;13.454;2022-11-30T16:59:03;2.60;99.90
6538;DHT22;3302;52.508;13.454;2022-11-30T17:01:31;2.60;99.90
6538;DHT22;3302;52.508;13.454;2022-11-30T17:03:58;2.70;99.90
6538;DHT22;3302;52.508;13.454;2022-11-30T17:06:24;2.70;99.90
6538;DHT22;3302;52.508;13.454;2022-11-30T17:08:54;2.70;99.90
6538;DHT22;3302;52.508;13.454;2022-11-30T17:11:32;2.60;99.90
6538;DHT22;3302;52.508;13.454;2022-11-30T17:13:58;2.60;99.90
6538;DHT22;3302;52.508;13.454;2022-11-30T17:16:25;2.70;99.90
6538;DHT22;3302;52.508;13.454;2022-11-30T17:18:51;2.50;99.90
6538;DHT22;3302;52.508;13.454;2022-11-30T17:21:19;2.60;99.90
6538;DHT22;3302;52.508;13.454;2022-11-30T17:23:47;2.60;99.90
6538;DHT22;3302;52.508;13.454;2022-11-30T17:26:13;2.60;99.90
6538;DHT22;3302;52.508;13.454;2022-11-30T17:28:39;2.50;99.90
6538;DHT22;3302;52.508;13.454;2022-11-30T17:31:07;2.60;99.90
6538;DHT22;3302;52.508;13.454;2022-11-30T17:33:33;2.40;99.90
6538;DHT22;3302;52.508;13.454;2022-11-30T17:36:01;2.40;99.90
6538;DHT22;3302;52.508;13.454;2022-11-30T17:38:30;2.60;99.90
6538;DHT22;3302;52.508;13.454;2022-11-30T17:40:56;2.50;99.90
6538;DHT22;3302;52.508;13.454;2022-11-30T17:43:22;2.60;99.90
6538;DHT22;3302;52.508;13.454;2022-11-30T17:45:48;2.60;99.90
6538;DHT22;3302;52.508;13.454;2022-11-30T17:48:14;2.50;99.90
6538;DHT22;3302;52.508;13.454;2022-11-30T17:50:41;2.60;99.90
6538;DHT22;3302;52.508;13.454;2022-11-30T17:53:07;2.60;99.90
6538;DHT22;3302;52.508;13.454;2022-11-30T17:55:33;2.50;99.90
6538;DHT22;3302;52.508;13.454;2022-11-30T17:57:59;2.60;99.90
6538;DHT22;3302;52.508;13.454;2022-11-30T18:00:25;2.60;99.90
6538;DHT22;3302;52.508;13.454;2022-11-30T18:02:52;2.60;99.90
6538;DHT22;3302;52.508;13.454;2022-11-30T18:05:19;2.50;99.90
6538;DHT22;3302;52.508;13.454;2022-11-30T18:07:45;2.30;99.90
6538;DHT22;3302;52.508;13.454;2022-11-30T18:10:11;2.50;99.90
6538;DHT22;3302;52.508;13.454;2022-11-30T18:12:37;2.50;99.90